sensor_id;sensor_type;location;lat;lon;timestamp;P1;durP1;ratioP1;P2;durP2;ratioP2
20908;SDS011;10614;53.198;6.570;2023-02-11T00:00:39;14.60;;;3.85;;
20908;SDS011;10614;53.198;6.570;2023-02-11T00:02:42;12.27;;;3.85;;
20908;SDS011;10614;53.198;6.570;2023-02-11T00:04:44;15.85;;;3.30;;
20908;SDS011;10614;53.198;6.570;2023-02-11T00:06:46;18.15;;;3.90;;
20908;SDS011;10614;53.198;6.570;2023-02-11T00:08:50;14.38;;;3.95;;
20908;SDS011;10614;53.198;6.570;2023-02-11T00:10:52;19.48;;;4.65;;
20908;SDS011;10614;53.198;6.570;2023-02-11T00:12:55;10.98;;;3.08;;
20908;SDS011;10614;53.198;6.570;2023-02-11T00:14:57;15.40;;;3.20;;
20908;SDS011;10614;53.198;6.570;2023-02-11T00:16:58;13.40;;;3.70;;
20908;SDS011;10614;53.198;6.570;2023-02-11T00:19:00;11.50;;;4.03;;
20908;SDS011;10614;53.198;6.570;2023-02-11T00:21:05;20.65;;;4.20;;
20908;SDS011;10614;53.198;6.570;2023-02-11T00:23:07;12.82;;;3.55;;
20908;SDS011;10614;53.198;6.570;2023-02-11T00:25:09;16.55;;;3.60;;
20908;SDS011;10614;53.198;6.570;2023-02-11T00:27:11;14.23;;;3.25;;
20908;SDS011;10614;53.198;6.570;2023-02-11T00:29:14;20.73;;;5.65;;
20908;SDS011;10614;53.198;6.570;2023-02-11T00:31:16;13.70;;;3.60;;
20908;SDS011;10614;53.198;6.570;2023-02-11T00:33:19;17.00;;;3.80;;
20908;SDS011;10614;53.198;6.570;2023-02-11T00:35:20;11.32;;;3.40;;
20908;SDS011;10614;53.198;6.570;2023-02-11T00:37:22;11.88;;;3.50;;
20908;SDS011;10614;53.198;6.570;2023-02-11T00:39:24;11.25;;;3.28;;
20908;SDS011;10614;53.198;6.570;2023-02-11T00:41:25;7.93;;;3.13;;
20908;SDS011;10614;53.198;6.570;2023-02-11T00:43:27;15.27;;;3.85;;
20908;SDS011;10614;53.198;6.570;2023-02-11T00:45:30;13.75;;;3.88;;
20908;SDS011;10614;53.198;6.570;2023-02-11T00:47:32;23.42;;;4.13;;
20908;SDS011;10614;53.198;6.570;2023-02-11T00:49:33;13.82;;;3.75;;
20908;SDS011;10614;53.198;6.570;2023-02-11T00:51:35;16.60;;;4.03;;
20908;SDS011;10614;53.198;6.570;2023-02-11T00:53:37;14.35;;;4.32;;
20908;SDS011;10614;53.198;6.570;2023-02-11T00:55:39;21.45;;;4.68;;
20908;SDS011;10614;53.198;6.570;2023-02-11T00:57:40;13.70;;;4.13;;
20908;SDS011;10614;53.198;6.570;2023-02-11T00:59:42;15.98;;;3.88;;
20908;SDS011;10614;53.198;6.570;2023-02-11T01:01:45;16.60;;;3.80;;
20908;SDS011;10614;53.198;6.570;2023-02-11T01:03:47;15.73;;;4.25;;
20908;SDS011;10614;53.198;6.570;2023-02-11T01:05:48;15.05;;;4.88;;
20908;SDS011;10614;53.198;6.570;2023-02-11T01:07:50;15.82;;;3.95;;
20908;SDS011;10614;53.198;6.570;2023-02-11T01:09:52;12.20;;;3.90;;
20908;SDS011;10614;53.198;6.570;2023-02-11T01:11:53;15.75;;;3.55;;
20908;SDS011;10614;53.198;6.570;2023-02-11T01:13:55;11.93;;;4.38;;
20908;SDS011;10614;53.198;6.570;2023-02-11T01:15:57;11.23;;;3.28;;
20908;SDS011;10614;53.198;6.570;2023-02-11T01:18:00;15.05;;;4.10;;
20908;SDS011;10614;53.198;6.570;2023-02-11T01:20:02;13.30;;;3.67;;
20908;SDS011;10614;53.198;6.570;2023-02-11T01:22:04;20.80;;;4.43;;
20908;SDS011;10614;53.198;6.570;2023-02-11T01:24:06;21.70;;;4.95;;
20908;SDS011;10614;53.198;6.570;2023-02-11T01:26:07;14.02;;;4.25;;
20908;SDS011;10614;53.198;6.570;2023-02-11T01:28:11;15.50;;;4.25;;
20908;SDS011;10614;53.198;6.570;2023-02-11T01:30:17;19.65;;;4.55;;
20908;SDS011;10614;53.198;6.570;2023-02-11T01:32:18;12.32;;;4.13;;
20908;SDS011;10614;53.198;6.570;2023-02-11T01:34:21;12.27;;;4.50;;
20908;SDS011;10614;53.198;6.570;2023-02-11T01:36:23;16.08;;;4.20;;
20908;SDS011;10614;53.198;6.570;2023-02-11T01:38:25;15.40;;;5.55;;
20908;SDS011;10614;53.198;6.570;2023-02-11T01:40:26;16.10;;;4.53;;
20908;SDS011;10614;53.198;6.570;2023-02-11T01:42:28;20.15;;;4.65;;
20908;SDS011;10614;53.198;6.570;2023-02-11T01:44:31;18.60;;;5.15;;
20908;SDS011;10614;53.198;6.570;2023-02-11T01:46:35;21.23;;;5.18;;
20908;SDS011;10614;53.198;6.570;2023-02-11T01:48:38;16.05;;;4.30;;
20908;SDS011;10614;53.198;6.570;2023-02-11T01:50:42;18.20;;;5.60;;
20908;SDS011;10614;53.198;6.570;2023-02-11T01:52:48;14.40;;;4.50;;
20908;SDS011;10614;53.198;6.570;2023-02-11T01:54:51;20.85;;;5.28;;
20908;SDS011;10614;53.198;6.570;2023-02-11T01:57:18;16.90;;;4.45;;
20908;SDS011;10614;53.198;6.570;2023-02-11T01:59:22;17.38;;;4.78;;
20908;SDS011;10614;53.198;6.570;2023-02-11T02:01:34;16.55;;;4.90;;
20908;SDS011;10614;53.198;6.570;2023-02-11T02:03:42;13.57;;;5.07;;
20908;SDS011;10614;53.198;6.570;2023-02-11T02:05:47;21.45;;;4.95;;
20908;SDS011;10614;53.198;6.570;2023-02-11T02:07:59;14.77;;;5.03;;
20908;SDS011;10614;53.198;6.570;2023-02-11T02:10:06;14.88;;;5.20;;
20908;SDS011;10614;53.198;6.570;2023-02-11T02:12:11;15.25;;;5.60;;
20908;SDS011;10614;53.198;6.570;2023-02-11T02:14:12;19.88;;;5.65;;
20908;SDS011;10614;53.198;6.570;2023-02-11T02:16:14;19.30;;;5.45;;
20908;SDS011;10614;53.198;6.570;2023-02-11T02:18:22;14.60;;;5.30;;
20908;SDS011;10614;53.198;6.570;2023-02-11T02:20:44;15.43;;;5.07;;
20908;SDS011;10614;53.198;6.570;2023-02-11T02:23:13;14.88;;;5.00;;
20908;SDS011;10614;53.198;6.570;2023-02-11T02:25:47;22.70;;;5.95;;
20908;SDS011;10614;53.198;6.570;2023-02-11T02:28:15;20.08;;;5.50;;
20908;SDS011;10614;53.198;6.570;2023-02-11T02:30:45;17.60;;;5.35;;
20908;SDS011;10614;53.198;6.570;2023-02-11T02:33:05;19.08;;;5.90;;
20908;SDS011;10614;53.198;6.570;2023-02-11T02:35:22;15.38;;;5.70;;
20908;SDS011;10614;53.198;6.570;2023-02-11T02:37:30;15.60;;;5.03;;
20908;SDS011;10614;53.198;6.570;2023-02-11T02:39:53;11.82;;;5.40;;
20908;SDS011;10614;53.198;6.570;2023-02-11T02:41:57;15.65;;;5.95;;
20908;SDS011;10614;53.198;6.570;2023-02-11T02:43:59;13.77;;;5.47;;
20908;SDS011;10614;53.198;6.570;2023-02-11T02:46:09;20.38;;;6.47;;
20908;SDS011;10614;53.198;6.570;2023-02-11T02:48:24;19.95;;;5.70;;
20908;SDS011;10614;53.198;6.570;2023-02-11T02:50:28;20.85;;;6.20;;
20908;SDS011;10614;53.198;6.570;2023-02-11T02:52:34;20.20;;;6.38;;
20908;SDS011;10614;53.198;6.570;2023-02-11T02:55:02;18.00;;;6.05;;
20908;SDS011;10614;53.198;6.570;2023-02-11T02:57:13;22.67;;;6.50;;
20908;SDS011;10614;53.198;6.570;2023-02-11T02:59:31;26.63;;;6.65;;
20908;SDS011;10614;53.198;6.570;2023-02-11T03:01:44;16.25;;;6.00;;
20908;SDS011;10614;53.198;6.570;2023-02-11T03:03:58;20.65;;;6.95;;
20908;SDS011;10614;53.198;6.570;2023-02-11T03:06:07;21.45;;;7.35;;
20908;SDS011;10614;53.198;6.570;2023-02-11T03:08:14;22.55;;;7.07;;
20908;SDS011;10614;53.198;6.570;2023-02-11T03:10:22;22.35;;;7.03;;
20908;SDS011;10614;53.198;6.570;2023-02-11T03:12:26;25.27;;;7.43;;
20908;SDS011;10614;53.198;6.570;2023-02-11T03:14:31;19.30;;;5.60;;
20908;SDS011;10614;53.198;6.570;2023-02-11T03:16:35;22.48;;;7.18;;
20908;SDS011;10614;53.198;6.570;2023-02-11T03:18:39;22.20;;;7.72;;
20908;SDS011;10614;53.198;6.570;2023-02-11T03:20:45;18.25;;;7.00;;
20908;SDS011;10614;53.198;6.570;2023-02-11T03:22:51;26.42;;;7.68;;
20908;SDS011;10614;53.198;6.570;2023-02-11T03:24:57;25.38;;;7.40;;
20908;SDS011;10614;53.198;6.570;2023-02-11T03:27:02;21.13;;;7.47;;
20908;SDS011;10614;53.198;6.570;2023-02-11T03:29:12;22.27;;;7.72;;
20908;SDS011;10614;53.198;6.570;2023-02-11T03:31:19;21.92;;;7.22;;
20908;SDS011;10614;53.198;6.570;2023-02-11T03:33:28;21.70;;;7.70;;
20908;SDS011;10614;53.198;6.570;2023-02-11T03:35:37;19.20;;;7.63;;
20908;SDS011;10614;53.198;6.570;2023-02-11T03:37:42;23.52;;;8.45;;
20908;SDS011;10614;53.198;6.570;2023-02-11T03:39:50;19.75;;;7.90;;
20908;SDS011;10614;53.198;6.570;2023-02-11T03:41:55;19.90;;;8.23;;
20908;SDS011;10614;53.198;6.570;2023-02-11T03:44:01;19.48;;;8.10;;
20908;SDS011;10614;53.198;6.570;2023-02-11T03:46:04;24.23;;;8.73;;
20908;SDS011;10614;53.198;6.570;2023-02-11T03:48:08;23.92;;;7.15;;
20908;SDS011;10614;53.198;6.570;2023-02-11T03:50:14;17.70;;;7.40;;
20908;SDS011;10614;53.198;6.570;2023-02-11T03:52:18;20.02;;;7.82;;
20908;SDS011;10614;53.198;6.570;2023-02-11T03:54:23;21.73;;;7.20;;
20908;SDS011;10614;53.198;6.570;2023-02-11T03:56:29;20.83;;;7.47;;
20908;SDS011;10614;53.198;6.570;2023-02-11T04:00:37;19.38;;;7.40;;
20908;SDS011;10614;53.198;6.570;2023-02-11T04:02:41;23.65;;;8.25;;
20908;SDS011;10614;53.198;6.570;2023-02-11T04:04:43;20.83;;;7.72;;
20908;SDS011;10614;53.198;6.570;2023-02-11T04:06:45;20.23;;;8.50;;
20908;SDS011;10614;53.198;6.570;2023-02-11T04:08:47;20.17;;;7.55;;
20908;SDS011;10614;53.198;6.570;2023-02-11T04:10:49;27.50;;;10.05;;
20908;SDS011;10614;53.198;6.570;2023-02-11T04:12:50;19.13;;;8.23;;
20908;SDS011;10614;53.198;6.570;2023-02-11T04:14:52;22.23;;;9.40;;
20908;SDS011;10614;53.198;6.570;2023-02-11T04:16:55;22.42;;;8.77;;
20908;SDS011;10614;53.198;6.570;2023-02-11T04:18:57;24.25;;;8.68;;
20908;SDS011;10614;53.198;6.570;2023-02-11T04:20:58;23.52;;;9.00;;
20908;SDS011;10614;53.198;6.570;2023-02-11T04:23:00;19.98;;;8.35;;
20908;SDS011;10614;53.198;6.570;2023-02-11T04:25:02;24.67;;;9.23;;
20908;SDS011;10614;53.198;6.570;2023-02-11T04:27:04;18.67;;;7.60;;
20908;SDS011;10614;53.198;6.570;2023-02-11T04:29:05;26.00;;;8.30;;
20908;SDS011;10614;53.198;6.570;2023-02-11T04:31:07;19.15;;;8.57;;
20908;SDS011;10614;53.198;6.570;2023-02-11T04:33:11;16.35;;;8.15;;
20908;SDS011;10614;53.198;6.570;2023-02-11T04:35:13;25.38;;;9.43;;
20908;SDS011;10614;53.198;6.570;2023-02-11T04:37:14;21.27;;;8.93;;
20908;SDS011;10614;53.198;6.570;2023-02-11T04:39:16;27.27;;;9.85;;
20908;SDS011;10614;53.198;6.570;2023-02-11T04:41:18;19.75;;;8.80;;
20908;SDS011;10614;53.198;6.570;2023-02-11T04:43:19;24.63;;;8.75;;
20908;SDS011;10614;53.198;6.570;2023-02-11T04:45:21;18.25;;;7.57;;
20908;SDS011;10614;53.198;6.570;2023-02-11T04:47:23;26.02;;;9.60;;
20908;SDS011;10614;53.198;6.570;2023-02-11T04:49:25;24.85;;;9.65;;
20908;SDS011;10614;53.198;6.570;2023-02-11T04:51:27;21.20;;;9.65;;
20908;SDS011;10614;53.198;6.570;2023-02-11T04:53:29;22.02;;;8.95;;
20908;SDS011;10614;53.198;6.570;2023-02-11T04:55:30;28.73;;;10.07;;
20908;SDS011;10614;53.198;6.570;2023-02-11T04:57:32;20.23;;;8.93;;
20908;SDS011;10614;53.198;6.570;2023-02-11T04:59:34;25.20;;;8.90;;
20908;SDS011;10614;53.198;6.570;2023-02-11T05:01:35;17.65;;;8.10;;
20908;SDS011;10614;53.198;6.570;2023-02-11T05:03:37;21.05;;;8.75;;
20908;SDS011;10614;53.198;6.570;2023-02-11T05:05:41;20.13;;;8.50;;
20908;SDS011;10614;53.198;6.570;2023-02-11T05:07:42;24.13;;;8.77;;
20908;SDS011;10614;53.198;6.570;2023-02-11T05:09:44;29.60;;;10.65;;
20908;SDS011;10614;53.198;6.570;2023-02-11T05:11:46;25.05;;;9.82;;
20908;SDS011;10614;53.198;6.570;2023-02-11T05:13:47;25.05;;;10.38;;
20908;SDS011;10614;53.198;6.570;2023-02-11T05:15:49;24.35;;;9.80;;
20908;SDS011;10614;53.198;6.570;2023-02-11T05:17:51;23.77;;;10.02;;
20908;SDS011;10614;53.198;6.570;2023-02-11T05:19:52;31.20;;;11.32;;
20908;SDS011;10614;53.198;6.570;2023-02-11T05:21:55;26.00;;;9.68;;
20908;SDS011;10614;53.198;6.570;2023-02-11T05:23:57;27.05;;;10.73;;
20908;SDS011;10614;53.198;6.570;2023-02-11T05:25:58;25.65;;;9.88;;
20908;SDS011;10614;53.198;6.570;2023-02-11T05:28:01;30.45;;;10.63;;
20908;SDS011;10614;53.198;6.570;2023-02-11T05:30:03;26.00;;;10.50;;
20908;SDS011;10614;53.198;6.570;2023-02-11T05:32:06;28.25;;;10.68;;
20908;SDS011;10614;53.198;6.570;2023-02-11T05:34:08;25.40;;;9.65;;
20908;SDS011;10614;53.198;6.570;2023-02-11T05:36:10;25.10;;;9.73;;
20908;SDS011;10614;53.198;6.570;2023-02-11T05:38:14;26.52;;;8.90;;
20908;SDS011;10614;53.198;6.570;2023-02-11T05:40:16;27.88;;;9.85;;
20908;SDS011;10614;53.198;6.570;2023-02-11T05:42:17;28.60;;;10.40;;
20908;SDS011;10614;53.198;6.570;2023-02-11T05:44:19;26.52;;;10.55;;
20908;SDS011;10614;53.198;6.570;2023-02-11T05:46:21;22.00;;;9.60;;
20908;SDS011;10614;53.198;6.570;2023-02-11T05:48:22;21.77;;;8.93;;
20908;SDS011;10614;53.198;6.570;2023-02-11T05:50:24;25.83;;;9.20;;
20908;SDS011;10614;53.198;6.570;2023-02-11T05:52:26;18.23;;;7.68;;
20908;SDS011;10614;53.198;6.570;2023-02-11T05:54:29;23.48;;;9.02;;
20908;SDS011;10614;53.198;6.570;2023-02-11T05:56:31;20.67;;;9.00;;
20908;SDS011;10614;53.198;6.570;2023-02-11T05:58:32;24.70;;;9.10;;
20908;SDS011;10614;53.198;6.570;2023-02-11T06:00:34;19.98;;;9.23;;
20908;SDS011;10614;53.198;6.570;2023-02-11T06:02:36;22.83;;;9.07;;
20908;SDS011;10614;53.198;6.570;2023-02-11T06:04:38;27.48;;;10.35;;
20908;SDS011;10614;53.198;6.570;2023-02-11T06:06:40;18.25;;;8.07;;
20908;SDS011;10614;53.198;6.570;2023-02-11T06:08:42;21.40;;;9.23;;
20908;SDS011;10614;53.198;6.570;2023-02-11T06:10:45;23.40;;;9.82;;
20908;SDS011;10614;53.198;6.570;2023-02-11T06:12:47;23.52;;;9.55;;
20908;SDS011;10614;53.198;6.570;2023-02-11T06:14:48;21.40;;;7.68;;
20908;SDS011;10614;53.198;6.570;2023-02-11T06:16:50;24.20;;;9.77;;
20908;SDS011;10614;53.198;6.570;2023-02-11T06:18:52;23.60;;;9.10;;
20908;SDS011;10614;53.198;6.570;2023-02-11T06:20:54;23.10;;;8.52;;
20908;SDS011;10614;53.198;6.570;2023-02-11T06:22:55;21.15;;;7.63;;
20908;SDS011;10614;53.198;6.570;2023-02-11T06:24:57;24.08;;;9.30;;
20908;SDS011;10614;53.198;6.570;2023-02-11T06:27:00;19.73;;;8.93;;
20908;SDS011;10614;53.198;6.570;2023-02-11T06:29:03;20.17;;;8.38;;
20908;SDS011;10614;53.198;6.570;2023-02-11T06:31:05;21.17;;;8.50;;
20908;SDS011;10614;53.198;6.570;2023-02-11T06:33:08;21.13;;;7.90;;
20908;SDS011;10614;53.198;6.570;2023-02-11T06:35:10;25.60;;;9.50;;
20908;SDS011;10614;53.198;6.570;2023-02-11T06:37:12;21.50;;;8.88;;
20908;SDS011;10614;53.198;6.570;2023-02-11T06:39:14;19.67;;;8.85;;
20908;SDS011;10614;53.198;6.570;2023-02-11T06:41:16;21.95;;;9.40;;
20908;SDS011;10614;53.198;6.570;2023-02-11T06:43:20;20.63;;;9.32;;
20908;SDS011;10614;53.198;6.570;2023-02-11T06:45:22;23.00;;;9.23;;
20908;SDS011;10614;53.198;6.570;2023-02-11T06:47:23;27.95;;;9.20;;
20908;SDS011;10614;53.198;6.570;2023-02-11T06:49:25;21.83;;;9.02;;
20908;SDS011;10614;53.198;6.570;2023-02-11T06:51:27;23.85;;;9.02;;
20908;SDS011;10614;53.198;6.570;2023-02-11T06:53:29;28.35;;;9.23;;
20908;SDS011;10614;53.198;6.570;2023-02-11T06:55:33;21.17;;;8.63;;
20908;SDS011;10614;53.198;6.570;2023-02-11T06:57:34;24.50;;;8.75;;
20908;SDS011;10614;53.198;6.570;2023-02-11T06:59:37;23.13;;;9.15;;
20908;SDS011;10614;53.198;6.570;2023-02-11T07:01:39;22.85;;;9.20;;
20908;SDS011;10614;53.198;6.570;2023-02-11T07:03:41;17.98;;;8.45;;
20908;SDS011;10614;53.198;6.570;2023-02-11T07:05:44;18.92;;;9.25;;
20908;SDS011;10614;53.198;6.570;2023-02-11T07:07:46;21.25;;;8.52;;
20908;SDS011;10614;53.198;6.570;2023-02-11T07:09:47;17.85;;;7.60;;
20908;SDS011;10614;53.198;6.570;2023-02-11T07:11:49;20.55;;;8.43;;
20908;SDS011;10614;53.198;6.570;2023-02-11T07:13:51;26.65;;;9.75;;
20908;SDS011;10614;53.198;6.570;2023-02-11T07:15:55;23.00;;;9.75;;
20908;SDS011;10614;53.198;6.570;2023-02-11T07:17:57;21.80;;;9.13;;
20908;SDS011;10614;53.198;6.570;2023-02-11T07:19:59;25.63;;;9.35;;
20908;SDS011;10614;53.198;6.570;2023-02-11T07:22:00;17.85;;;8.02;;
20908;SDS011;10614;53.198;6.570;2023-02-11T07:24:04;22.00;;;9.38;;
20908;SDS011;10614;53.198;6.570;2023-02-11T07:26:07;15.25;;;7.10;;
20908;SDS011;10614;53.198;6.570;2023-02-11T07:28:10;26.50;;;9.77;;
20908;SDS011;10614;53.198;6.570;2023-02-11T07:30:12;23.40;;;9.68;;
20908;SDS011;10614;53.198;6.570;2023-02-11T07:32:16;26.25;;;9.60;;
20908;SDS011;10614;53.198;6.570;2023-02-11T07:34:17;20.92;;;8.30;;
20908;SDS011;10614;53.198;6.570;2023-02-11T07:36:19;20.98;;;9.40;;
20908;SDS011;10614;53.198;6.570;2023-02-11T07:38:21;25.65;;;9.40;;
20908;SDS011;10614;53.198;6.570;2023-02-11T07:40:23;18.63;;;8.43;;
20908;SDS011;10614;53.198;6.570;2023-02-11T07:42:25;25.02;;;9.05;;
20908;SDS011;10614;53.198;6.570;2023-02-11T07:44:26;22.63;;;10.05;;
20908;SDS011;10614;53.198;6.570;2023-02-11T07:46:28;19.13;;;8.75;;
20908;SDS011;10614;53.198;6.570;2023-02-11T07:48:31;19.50;;;8.55;;
20908;SDS011;10614;53.198;6.570;2023-02-11T07:50:33;22.02;;;9.00;;
20908;SDS011;10614;53.198;6.570;2023-02-11T07:52:35;21.08;;;9.10;;
20908;SDS011;10614;53.198;6.570;2023-02-11T07:54:36;21.50;;;8.57;;
20908;SDS011;10614;53.198;6.570;2023-02-11T07:56:38;19.70;;;8.30;;
20908;SDS011;10614;53.198;6.570;2023-02-11T07:58:39;23.00;;;9.27;;
20908;SDS011;10614;53.198;6.570;2023-02-11T08:00:42;24.05;;;9.50;;
20908;SDS011;10614;53.198;6.570;2023-02-11T08:02:44;19.60;;;8.90;;
20908;SDS011;10614;53.198;6.570;2023-02-11T08:04:48;24.83;;;9.20;;
20908;SDS011;10614;53.198;6.570;2023-02-11T08:06:49;21.83;;;9.43;;
20908;SDS011;10614;53.198;6.570;2023-02-11T08:08:55;23.05;;;8.75;;
20908;SDS011;10614;53.198;6.570;2023-02-11T08:10:56;21.00;;;8.70;;
20908;SDS011;10614;53.198;6.570;2023-02-11T08:12:58;19.60;;;8.63;;
20908;SDS011;10614;53.198;6.570;2023-02-11T08:14:59;20.85;;;8.50;;
20908;SDS011;10614;53.198;6.570;2023-02-11T08:17:02;24.10;;;8.20;;
20908;SDS011;10614;53.198;6.570;2023-02-11T08:19:05;28.65;;;8.85;;
20908;SDS011;10614;53.198;6.570;2023-02-11T08:21:09;16.67;;;7.45;;
20908;SDS011;10614;53.198;6.570;2023-02-11T08:23:11;20.50;;;8.15;;
20908;SDS011;10614;53.198;6.570;2023-02-11T08:25:12;16.20;;;7.38;;
20908;SDS011;10614;53.198;6.570;2023-02-11T08:27:14;19.13;;;8.57;;
20908;SDS011;10614;53.198;6.570;2023-02-11T08:29:16;20.25;;;8.05;;
20908;SDS011;10614;53.198;6.570;2023-02-11T08:31:18;24.00;;;8.40;;
20908;SDS011;10614;53.198;6.570;2023-02-11T08:33:22;19.15;;;8.25;;
20908;SDS011;10614;53.198;6.570;2023-02-11T08:35:23;17.25;;;7.68;;
20908;SDS011;10614;53.198;6.570;2023-02-11T08:37:26;23.58;;;8.35;;
20908;SDS011;10614;53.198;6.570;2023-02-11T08:39:28;19.13;;;8.88;;
20908;SDS011;10614;53.198;6.570;2023-02-11T08:41:30;16.98;;;7.35;;
20908;SDS011;10614;53.198;6.570;2023-02-11T08:43:32;20.83;;;8.73;;
20908;SDS011;10614;53.198;6.570;2023-02-11T08:45:34;17.70;;;7.18;;
20908;SDS011;10614;53.198;6.570;2023-02-11T08:47:37;16.75;;;7.25;;
20908;SDS011;10614;53.198;6.570;2023-02-11T08:49:39;20.15;;;8.02;;
20908;SDS011;10614;53.198;6.570;2023-02-11T08:51:41;17.45;;;6.95;;
20908;SDS011;10614;53.198;6.570;2023-02-11T08:53:45;15.93;;;7.18;;
20908;SDS011;10614;53.198;6.570;2023-02-11T08:55:47;20.60;;;8.95;;
20908;SDS011;10614;53.198;6.570;2023-02-11T08:57:49;15.50;;;7.07;;
20908;SDS011;10614;53.198;6.570;2023-02-11T08:59:50;20.30;;;7.82;;
20908;SDS011;10614;53.198;6.570;2023-02-11T09:01:52;19.48;;;7.97;;
20908;SDS011;10614;53.198;6.570;2023-02-11T09:03:54;17.23;;;7.85;;
20908;SDS011;10614;53.198;6.570;2023-02-11T09:05:57;16.27;;;7.53;;
20908;SDS011;10614;53.198;6.570;2023-02-11T09:07:58;14.15;;;6.75;;
20908;SDS011;10614;53.198;6.570;2023-02-11T09:10:01;18.92;;;6.82;;
20908;SDS011;10614;53.198;6.570;2023-02-11T09:12:03;18.35;;;6.88;;
20908;SDS011;10614;53.198;6.570;2023-02-11T09:14:05;18.55;;;7.05;;
20908;SDS011;10614;53.198;6.570;2023-02-11T09:16:12;16.17;;;5.53;;
20908;SDS011;10614;53.198;6.570;2023-02-11T09:18:16;17.05;;;6.28;;
20908;SDS011;10614;53.198;6.570;2023-02-11T09:20:18;23.90;;;6.38;;
20908;SDS011;10614;53.198;6.570;2023-02-11T09:22:21;16.15;;;6.43;;
20908;SDS011;10614;53.198;6.570;2023-02-11T09:24:22;17.17;;;6.45;;
20908;SDS011;10614;53.198;6.570;2023-02-11T09:26:26;14.50;;;6.78;;
20908;SDS011;10614;53.198;6.570;2023-02-11T09:28:29;18.75;;;7.05;;
20908;SDS011;10614;53.198;6.570;2023-02-11T09:30:30;16.52;;;6.07;;
20908;SDS011;10614;53.198;6.570;2023-02-11T09:32:32;15.63;;;6.70;;
20908;SDS011;10614;53.198;6.570;2023-02-11T09:34:34;14.40;;;6.03;;
20908;SDS011;10614;53.198;6.570;2023-02-11T09:36:36;12.00;;;5.35;;
20908;SDS011;10614;53.198;6.570;2023-02-11T09:38:39;14.75;;;6.22;;
20908;SDS011;10614;53.198;6.570;2023-02-11T09:40:41;15.60;;;5.88;;
20908;SDS011;10614;53.198;6.570;2023-02-11T09:42:45;17.67;;;5.65;;
20908;SDS011;10614;53.198;6.570;2023-02-11T09:44:49;15.55;;;5.65;;
20908;SDS011;10614;53.198;6.570;2023-02-11T09:46:53;15.50;;;5.75;;
20908;SDS011;10614;53.198;6.570;2023-02-11T09:48:57;15.43;;;5.72;;
20908;SDS011;10614;53.198;6.570;2023-02-11T09:51:00;21.58;;;5.88;;
20908;SDS011;10614;53.198;6.570;2023-02-11T09:53:05;14.37;;;5.77;;
20908;SDS011;10614;53.198;6.570;2023-02-11T09:55:17;14.35;;;5.97;;
20908;SDS011;10614;53.198;6.570;2023-02-11T09:57:23;12.57;;;5.28;;
20908;SDS011;10614;53.198;6.570;2023-02-11T09:59:31;15.98;;;5.65;;
20908;SDS011;10614;53.198;6.570;2023-02-11T10:01:35;13.88;;;5.75;;
20908;SDS011;10614;53.198;6.570;2023-02-11T10:03:51;15.68;;;5.47;;
20908;SDS011;10614;53.198;6.570;2023-02-11T10:08:37;16.00;;;5.32;;
20908;SDS011;10614;53.198;6.570;2023-02-11T10:10:49;13.05;;;5.68;;
20908;SDS011;10614;53.198;6.570;2023-02-11T10:12:59;19.58;;;5.75;;
20908;SDS011;10614;53.198;6.570;2023-02-11T10:15:17;12.57;;;5.22;;
20908;SDS011;10614;53.198;6.570;2023-02-11T10:17:28;13.18;;;4.90;;
20908;SDS011;10614;53.198;6.570;2023-02-11T10:19:45;12.10;;;5.32;;
20908;SDS011;10614;53.198;6.570;2023-02-11T10:22:04;14.63;;;4.68;;
20908;SDS011;10614;53.198;6.570;2023-02-11T10:24:11;14.38;;;5.13;;
20908;SDS011;10614;53.198;6.570;2023-02-11T10:26:17;22.23;;;5.50;;
20908;SDS011;10614;53.198;6.570;2023-02-11T10:28:20;12.30;;;4.47;;
20908;SDS011;10614;53.198;6.570;2023-02-11T10:30:27;12.07;;;4.70;;
20908;SDS011;10614;53.198;6.570;2023-02-11T10:32:33;15.02;;;4.95;;
20908;SDS011;10614;53.198;6.570;2023-02-11T10:34:42;14.68;;;5.15;;
20908;SDS011;10614;53.198;6.570;2023-02-11T10:36:43;16.20;;;4.60;;
20908;SDS011;10614;53.198;6.570;2023-02-11T10:38:45;11.27;;;4.05;;
20908;SDS011;10614;53.198;6.570;2023-02-11T10:40:49;12.68;;;4.10;;
20908;SDS011;10614;53.198;6.570;2023-02-11T10:42:52;15.43;;;4.18;;
20908;SDS011;10614;53.198;6.570;2023-02-11T10:44:56;12.02;;;4.35;;
20908;SDS011;10614;53.198;6.570;2023-02-11T10:49:05;13.25;;;4.35;;
20908;SDS011;10614;53.198;6.570;2023-02-11T10:51:07;10.65;;;3.80;;
20908;SDS011;10614;53.198;6.570;2023-02-11T10:53:17;12.15;;;4.07;;
20908;SDS011;10614;53.198;6.570;2023-02-11T10:55:22;11.15;;;3.95;;
20908;SDS011;10614;53.198;6.570;2023-02-11T10:57:29;10.68;;;3.15;;
20908;SDS011;10614;53.198;6.570;2023-02-11T10:59:34;14.90;;;4.28;;
20908;SDS011;10614;53.198;6.570;2023-02-11T11:01:40;14.02;;;3.78;;
20908;SDS011;10614;53.198;6.570;2023-02-11T11:03:47;12.32;;;3.60;;
20908;SDS011;10614;53.198;6.570;2023-02-11T11:05:51;13.98;;;3.63;;
20908;SDS011;10614;53.198;6.570;2023-02-11T11:10:00;11.95;;;3.90;;
20908;SDS011;10614;53.198;6.570;2023-02-11T11:12:05;8.77;;;2.97;;
20908;SDS011;10614;53.198;6.570;2023-02-11T11:14:12;6.38;;;2.88;;
20908;SDS011;10614;53.198;6.570;2023-02-11T11:16:21;9.07;;;2.78;;
20908;SDS011;10614;53.198;6.570;2023-02-11T11:18:24;8.07;;;2.60;;
20908;SDS011;10614;53.198;6.570;2023-02-11T11:20:28;8.77;;;2.55;;
20908;SDS011;10614;53.198;6.570;2023-02-11T11:22:34;6.57;;;2.60;;
20908;SDS011;10614;53.198;6.570;2023-02-11T11:24:39;13.57;;;2.97;;
20908;SDS011;10614;53.198;6.570;2023-02-11T11:26:46;14.18;;;2.53;;
20908;SDS011;10614;53.198;6.570;2023-02-11T11:28:51;13.73;;;3.42;;
20908;SDS011;10614;53.198;6.570;2023-02-11T11:30:56;8.73;;;2.78;;
20908;SDS011;10614;53.198;6.570;2023-02-11T11:32:59;10.55;;;2.50;;
20908;SDS011;10614;53.198;6.570;2023-02-11T11:35:03;16.75;;;2.60;;
20908;SDS011;10614;53.198;6.570;2023-02-11T11:37:11;11.25;;;2.72;;
20908;SDS011;10614;53.198;6.570;2023-02-11T11:39:20;14.40;;;3.35;;
20908;SDS011;10614;53.198;6.570;2023-02-11T11:41:25;7.57;;;2.65;;
20908;SDS011;10614;53.198;6.570;2023-02-11T11:43:29;11.40;;;3.13;;
20908;SDS011;10614;53.198;6.570;2023-02-11T11:45:31;10.90;;;2.80;;
20908;SDS011;10614;53.198;6.570;2023-02-11T11:47:35;9.27;;;2.70;;
20908;SDS011;10614;53.198;6.570;2023-02-11T11:49:40;14.55;;;2.65;;
20908;SDS011;10614;53.198;6.570;2023-02-11T11:51:50;11.55;;;2.50;;
20908;SDS011;10614;53.198;6.570;2023-02-11T11:54:01;9.05;;;2.55;;
20908;SDS011;10614;53.198;6.570;2023-02-11T11:56:08;7.22;;;2.55;;
20908;SDS011;10614;53.198;6.570;2023-02-11T11:58:14;10.98;;;2.05;;
20908;SDS011;10614;53.198;6.570;2023-02-11T12:00:18;7.53;;;2.08;;
20908;SDS011;10614;53.198;6.570;2023-02-11T12:02:37;8.18;;;2.13;;
20908;SDS011;10614;53.198;6.570;2023-02-11T12:04:59;8.35;;;2.00;;
20908;SDS011;10614;53.198;6.570;2023-02-11T12:07:10;9.82;;;2.75;;
20908;SDS011;10614;53.198;6.570;2023-02-11T12:09:24;10.38;;;2.25;;
20908;SDS011;10614;53.198;6.570;2023-02-11T12:11:35;9.63;;;2.42;;
20908;SDS011;10614;53.198;6.570;2023-02-11T12:13:47;14.55;;;2.40;;
20908;SDS011;10614;53.198;6.570;2023-02-11T12:16:02;10.05;;;2.30;;
20908;SDS011;10614;53.198;6.570;2023-02-11T12:18:16;7.40;;;2.15;;
20908;SDS011;10614;53.198;6.570;2023-02-11T12:20:34;8.75;;;1.90;;
20908;SDS011;10614;53.198;6.570;2023-02-11T12:22:48;9.30;;;1.80;;
20908;SDS011;10614;53.198;6.570;2023-02-11T12:25:02;6.18;;;1.95;;
20908;SDS011;10614;53.198;6.570;2023-02-11T12:27:11;7.80;;;2.08;;
20908;SDS011;10614;53.198;6.570;2023-02-11T12:29:23;6.82;;;2.15;;